Palito Blanco, Texas
Current Conditions -  °F | °C
As of 10:27 AM on Saturday 20 Dec 2014 (Local Time) from KALI Reporting Station
Overcast Overcast  
Wind Chill: 54°   Ceiling: 1000
Heat Index: 54°   Visibility: 10mi
Dew Point: 48°   Wind: 8mph
Humidity: 80%   Direction: 10°N
Pressure: 30.22"   Gusts: NA
Location:  27.6821°N, 98.1034°W
Report Text: KALI 201627Z AUTO 01007KT 10SM OVC010 12/09 A3022 RMK AO2 T01220089
Loading
Personal Weather Stations






























Interactive Weather Map New forecast layout! Learn more

10-Day Weather Forecast

Advertisements
Track Severe Weather on mobile